Aeroporto Internazionale di Montréal-Pierre Elliott Trudeau

CYUL

17 agosto 2022

Tempo Codice Tempo metereologico Temp. Vista Base nuvolosa Vento METAR/SPECI
9:00 am
V
66 °F 30 mi 18.000 ft 020° 020° 10 kt METAR CYUL 171300Z 02010KT 30SM FEW110 SCT120 BKN180 OVC250 19/15 A3011 RMK ACC1AC2AC2CS3 SLP197 DENSITY ALT 500FT
8:00 am
V
64 °F 30 mi 25.000 ft 020° 020° 10 kt METAR CYUL 171200Z 02010KT 30SM FEW130 OVC250 18/14 A3011 RMK AC1CS7 CC ASOCTD SLP198 DENSITY ALT 400FT
7:00 am
V
64 °F 30 mi 25.000 ft 030° 030° 11 kt METAR CYUL 171100Z 03011KT 30SM FEW130 OVC250 18/14 A3011 RMK AC1CS7 SLP197 DENSITY ALT 300FT
6:00 am
V
64 °F 30 mi 25.000 ft 020° 020° 10 kt METAR CYUL 171000Z 02010KT 30SM FEW130 OVC250 18/13 A3010 RMK AC1CS7 SLP194 DENSITY ALT 300FT
5:00 am
V
64 °F 15 mi 25.000 ft 030° 030° 10 kt METAR CYUL 170900Z 03010KT 15SM FEW130 OVC250 18/11 A3009 RMK AC1CS8 AC TR SLP190 DENSITY ALT 400FT
4:00 am
V
66 °F 15 mi 25.000 ft 030° 030° 11 kt METAR CYUL 170800Z 03011KT 15SM SCT130 BKN250 19/11 A3009 RMK AC3CI3 SLP190 DENSITY ALT 400FT
3:00 am
V
66 °F 15 mi 25.000 ft 030° 030° 8 kt METAR CYUL 170700Z 03008KT 15SM SCT130 BKN250 19/13 A3009 RMK AC4CI2 SLP190 DENSITY ALT 400FT
2:00 am
V
68 °F 15 mi 25.000 ft 010° 010° 8 kt METAR CYUL 170600Z 01008KT 15SM SCT120 BKN250 20/15 A3008 RMK AC4CI2 SLP189 DENSITY ALT 600FT
1:00 am
V
68 °F 15 mi 13.000 ft 040° 040° 9 kt METAR CYUL 170500Z 04009KT 15SM BKN130 OVC250 20/15 A3009 RMK AC5CI3 SLP191 DENSITY ALT 600FT
12:00 am
V
70 °F 15 mi 12.000 ft 050° 050° 9 kt METAR CYUL 170400Z 05009KT 15SM BKN120 OVC250 21/15 A3009 RMK AC5CI3 SLP192 DENSITY ALT 700FT

16 agosto 2022

Tempo Codice Tempo metereologico Temp. Vista Base nuvolosa Vento METAR/SPECI
11:00 pm
V
73 °F 15 mi 25.000 ft 040° 040° 12 kt METAR CYUL 170300Z 04012KT 15SM SCT110 SCT130 OVC250 23/15 A3009 RMK AC3AC1CI4 SLP190 DENSITY ALT 900FT
10:00 pm
V
73 °F 15 mi 11.000 ft 020° 020° 9 kt METAR CYUL 170200Z 02009KT 15SM BKN110 OVC250 23/16 A3009 RMK AC7CI1 SLP192 DENSITY ALT 900FT
9:00 pm
V
73 °F 15 mi 11.000 ft 030° 030° 7 kt METAR CYUL 170100Z 03007KT 15SM OVC110 23/16 A3009 RMK AC8 SLP191 DENSITY ALT 900FT
8:00 pm
V
73 °F 30 mi 11.000 ft 020° 020° 6 kt METAR CYUL 170000Z 02006KT 30SM FEW045 BKN110 BKN250 23/15 A3008 RMK CU1AC6CI1 CU TR SLP189 DENSITY ALT 1000FT
7:00 pm
V
73 °F 30 mi 23.000 ft 090° 090° 6 kt METAR CYUL 162300Z 09006KT 30SM FEW050 SCT120 BKN230 23/15 A3008 RMK CU1AC4CI3 CU TR SLP189 DENSITY ALT 1000FT
6:00 pm
V
73 °F 15 mi 12.000 ft 060° 060° 7 kt METAR CYUL 162200Z 06007KT 15SM FEW030TCU BKN120 OVC240 23/15 A3008 RMK TCU1AC5CI2 SLP189 DENSITY ALT 1000FT
5:54 pm
V
73 °F 15 mi 12.000 ft 050° 050° 9 - 15 kt METAR CYUL 162154Z 05009G15KT 15SM FEW030TCU BKN120 OVC240 23/14 A3008 RMK TCU1AC4CI3 SLP187 DENSITY ALT 1000FT
5:37 pm
V
75 °F 15 mi 9.000 ft 040° 040° 9 kt METAR CYUL 162137Z 04009KT 15SM FEW025TCU BKN090 OVC250 24/15 A3008 RMK TCU2ACC4CI2 SLP186 DENSITY ALT 1000FT
5:00 pm
V
75 °F 15 mi 10.000 ft 080° 080° 14 - 22 kt METAR CYUL 162100Z 08014G22KT 15SM FEW025TCU BKN100 OVC250 24/13 A3008 RMK TCU2ACC4CI2 SLP187 DENSITY ALT 1100FT
4:00 pm
V
81 °F 15 mi 6.200 ft 050° 050° 7 kt METAR CYUL 162000Z 05007KT 15SM BKN062 BKN090 BKN250 27/14 A3008 RMK SC6AC1CI1 CI TR SLP186 DENSITY ALT 1400FT
3:00 pm
V
81 °F 15 mi 9.500 ft 070° 070° 8 kt METAR CYUL 161900Z 07008KT 030V120 15SM SCT065 BKN095 BKN250 27/15 A3008 RMK CU4AC1CI2 SLP186 DENSITY ALT 1400FT
2:00 pm
V
82 °F 15 mi 24.000 ft Var Var 5 kt METAR CYUL 161800Z VRB05KT 15SM FEW045 BKN240 28/17 A3009 RMK CU1CI6 SLP191 DENSITY ALT 1500FT
1:00 pm
V
81 °F 15 mi 25.000 ft 050° 050° 7 kt METAR CYUL 161700Z 05007KT 020V090 15SM FEW045 FEW090 BKN250 27/16 A3010 RMK CU1AC1CI5 AC TR SLP193 DENSITY ALT 1300FT
12:00 pm
V
77 °F 15 mi 25.000 ft 040° 040° 9 kt METAR CYUL 161600Z 04009KT 15SM FEW045 SCT090 BKN250 25/16 A3010 RMK CU1AC3CI4 CU TR SLP195 DENSITY ALT 1200FT
11:00 am
V
75 °F 15 mi 25.000 ft 060° 060° 8 kt METAR CYUL 161500Z 06008KT 15SM FEW045 SCT070 BKN250 24/16 A3010 RMK CF1AC3CI3 CF TR SLP195 DENSITY ALT 1000FT
10:00 am
V
73 °F 15 mi 25.000 ft 040° 040° 9 kt METAR CYUL 161400Z 04009KT 010V090 15SM FEW045 FEW065 BKN250 23/16 A3009 RMK CF1CF1CI5 CF TR CONTRAILS SLP192 DENSITY ALT 900FT
9:00 am
V
70 °F 30 mi - 020° 020° 9 kt METAR CYUL 161300Z 02009KT 30SM FEW080 FEW250 21/16 A3009 RMK ACC1CI2 ACC TR SLP191 DENSITY ALT 700FT
8:00 am
V
66 °F 30 mi - 020° 020° 10 kt METAR CYUL 161200Z 02010KT 30SM FEW075 FEW250 19/14 A3009 RMK ACC1CI2 ACC TR SLP191 DENSITY ALT 500FT
7:00 am
V
64 °F 30 mi - 030° 030° 6 kt METAR CYUL 161100Z 03006KT 30SM FEW075 SCT250 18/14 A3008 RMK ACC1CI4 ACC TR SLP188 DENSITY ALT 300FT
6:00 am
V
63 °F 30 mi 25.000 ft 360° 360° 5 kt METAR CYUL 161000Z 36005KT 30SM FEW075 BKN250 17/13 A3006 RMK ACC1CI4 SLP182 DENSITY ALT 300FT
5:00 am
V
64 °F 15 mi - 360° 360° 5 kt METAR CYUL 160900Z 36005KT 15SM FEW075 FEW250 18/14 A3005 RMK ACC1CI1 SLP179 DENSITY ALT 300FT
4:00 am
V
64 °F 15 mi - 020° 020° 5 kt METAR CYUL 160800Z 02005KT 15SM FEW075 FEW250 18/13 A3005 RMK AC1CI1 AC TR CI TR SLP178 DENSITY ALT 300FT
3:00 am
V
66 °F 15 mi - 010° 010° 6 kt METAR CYUL 160700Z 01006KT 15SM FEW070 FEW250 19/13 A3005 RMK AC1CI1 AC TR SLP177 DENSITY ALT 500FT
2:00 am
V
66 °F 15 mi - 020° 020° 8 kt METAR CYUL 160600Z 02008KT 15SM FEW080 SCT230 19/14 A3004 RMK AC1CI3 AC TR SLP175 DENSITY ALT 500FT
1:00 am
V
66 °F 15 mi - 020° 020° 6 kt METAR CYUL 160500Z 02006KT 15SM FEW250 19/14 A3005 RMK CI1 CI TR SLP176 DENSITY ALT 600FT
12:00 am
V
66 °F 15 mi - 020° 020° 7 kt METAR CYUL 160400Z 02007KT 15SM FEW250 19/13 A3005 RMK CI1 SLP178 DENSITY ALT 600FT

15 agosto 2022

Tempo Codice Tempo metereologico Temp. Vista Base nuvolosa Vento METAR/SPECI
11:00 pm
V
70 °F 15 mi - 350° 350° 6 kt METAR CYUL 160300Z 35006KT 15SM FEW250 21/13 A3005 RMK CI1 CI TR SLP176 DENSITY ALT 800FT
10:00 pm
V
72 °F 15 mi - 060° 060° 3 kt METAR CYUL 160200Z 06003KT 15SM FEW250 22/12 A3004 RMK CI1 CI TR SLP173 DENSITY ALT 900FT
9:00 pm
V
72 °F 15 mi - 070° 070° 5 kt METAR CYUL 160100Z 07005KT 15SM FEW060 FEW120 SCT250 22/12 A3002 RMK CF1AC2CI1 CF TR SLP169 DENSITY ALT 900FT
8:00 pm
V
75 °F 20 mi - 270° 270° 5 kt METAR CYUL 160000Z 27005KT 230V300 20SM FEW060 FEW100 SCT250 24/12 A3000 RMK CF1AC1CI2 SLP161 DENSITY ALT 1200FT
7:00 pm
V
79 °F 30 mi - Var Var 4 kt METAR CYUL 152300Z VRB04KT 30SM FEW065 FEW090 FEW250 26/11 A2999 RMK CF1AC2CI1 CF TR CI TR SLP158 DENSITY ALT 1400FT
6:00 pm
V
81 °F 30 mi - 250° 250° 4 kt METAR CYUL 152200Z 25004KT 30SM SCT080 SCT250 27/11 A2999 RMK AC3CI1 SLP157 DENSITY ALT 1400FT
5:00 pm
V
81 °F 30 mi - 190° 190° 5 kt METAR CYUL 152100Z 19005KT 150V240 30SM FEW080 SCT250 27/12 A2999 RMK AC2CC1 SLP157 DENSITY ALT 1500FT
4:00 pm
V
81 °F 30 mi - 200° 200° 6 kt METAR CYUL 152000Z 20006KT 150V240 30SM FEW075 SCT250 27/13 A3000 RMK AC2CI1 SLP160 DENSITY ALT 1500FT
3:00 pm
V
81 °F 30 mi - 190° 190° 5 kt METAR CYUL 151900Z 19005KT 130V250 30SM SCT075 SCT250 27/13 A3001 RMK AC3CI1 CI TR SLP163 DENSITY ALT 1500FT
2:00 pm
V
81 °F 30 mi - 210° 210° 7 kt METAR CYUL 151800Z 21007KT 160V230 30SM SCT065 SCT100 SCT250 27/12 A3001 RMK CU3AC1CI1 CI TR SLP164 DENSITY ALT 1400FT
1:00 pm
V
79 °F 30 mi - 200° 200° 6 kt METAR CYUL 151700Z 20006KT 140V230 30SM FEW065 SCT250 26/11 A3002 RMK CU2CI2 SLP166 DENSITY ALT 1400FT
12:00 pm
V
77 °F 30 mi - 210° 210° 4 kt METAR CYUL 151600Z 21004KT 170V230 30SM FEW100 SCT250 25/12 A3003 RMK AC1CI2 SLP170 DENSITY ALT 1300FT
11:00 am
V
75 °F 30 mi - Var Var 3 kt METAR CYUL 151500Z VRB03KT 30SM FEW100 SCT250 24/13 A3003 RMK AC1CI4 AC TR SLP171 DENSITY ALT 1100FT
10:00 am
V
73 °F 30 mi - Var Var 3 kt METAR CYUL 151400Z VRB03KT 30SM FEW110 SCT250 23/14 A3004 RMK AC1CI4 AC TR SLP173 DENSITY ALT 1000FT
Dati più vecchi

Noi e le terze parti seguiamo il tuo comportamento in internet sul nostro sito web con i cookie. Se continui, riteniamo che tu sia d'accordo con la nostra politica sui cookie. Per saperne di più